Peary Spirit — C6YM3 — position and weather

sailwx.info

Track history (hours):
 
Tides and Currents Weather Stations Pressure Air Temp Water Temp Dewpoint Dewpoint Depression Visibility Wind Speed Wind Dir Waves Ship Positions

Peary Spirit

Last reported at 2014-Sep-23 17:33 UTC. Time now 2014-Sep-23 18:30 UTC.
Position N 51°56' E 004°10'.

Length 249 m; draft 9.7 m.

Type: Tanker. MMSI: 311027600.

Date/timePositionNaut miles runAvg speedWind from/ knotsBaromVisibWave heightAir tempDewpointWater temp
2014-Sep-23 17:33N 51°56' E 004°10'0 0.0
2014-Sep-23 16:33N 51°56' E 004°10'0 0.0
2014-Sep-23 15:30N 51°56' E 004°10'0 0.0
2014-Sep-23 14:30N 51°56' E 004°10'0 0.0
2014-Sep-23 13:33N 51°56' E 004°10'0 0.0
2014-Sep-23 12:33N 51°56' E 004°10'0 0.0
2014-Sep-23 11:33N 51°56' E 004°10'0 0.0
2014-Sep-23 10:33N 51°56' E 004°10'0 0.0
2014-Sep-23 09:33N 51°56' E 004°10'0 0.0
2014-Sep-23 08:33N 51°56' E 004°10'0 0.0
2014-Sep-23 07:33N 51°56' E 004°10'0 0.0
2014-Sep-23 06:30N 51°56' E 004°10'0 0.0
2014-Sep-23 05:33N 51°56' E 004°10'0 0.0
2014-Sep-23 04:33N 51°56' E 004°10'0 0.0
2014-Sep-23 03:33N 51°56' E 004°10'0 0.0
2014-Sep-23 02:33N 51°56' E 004°10'0 0.0
2014-Sep-23 01:33N 51°56' E 004°10'0 0.0
2014-Sep-23 00:30N 51°56' E 004°10'0 0.0
2014-Sep-22 23:33N 51°56' E 004°10'0 0.0
2014-Sep-22 22:33N 51°56' E 004°10'0 0.0
2014-Sep-22 21:30N 51°56' E 004°10'0 0.0
2014-Sep-22 20:30N 51°56' E 004°10'0 0.0
2014-Sep-22 19:30N 51°56' E 004°10'0 0.0
2014-Sep-22 18:33N 51°56' E 004°10'0 0.0
2014-Sep-22 17:33N 51°56' E 004°10'0 0.0
2014-Sep-22 16:18N 51°56' E 004°10'0 0.0
2014-Sep-22 15:27N 51°56' E 004°10'0 0.0
2014-Sep-22 14:27N 51°56' E 004°10'0 0.0
2014-Sep-22 13:33N 51°56' E 004°10'0 0.0
2014-Sep-22 12:33N 51°56' E 004°10'0 0.0
2014-Sep-22 11:33N 51°56' E 004°10'0 0.0
2014-Sep-22 10:33N 51°56' E 004°10'0 0.0
2014-Sep-22 09:33N 51°56' E 004°10'0 0.0
2014-Sep-22 08:30N 51°56' E 004°10'0 0.0
2014-Sep-22 07:33N 51°56' E 004°10'0 0.0
2014-Sep-22 06:24N 51°56' E 004°10'0 0.0
2014-Sep-22 05:30N 51°56' E 004°10'0 0.0
2014-Sep-22 04:33N 51°56' E 004°10'0 0.0
2014-Sep-22 03:33N 51°56' E 004°10'0 0.0
2014-Sep-22 02:33N 51°56' E 004°10'0 0.0
2014-Sep-22 01:33N 51°56' E 004°10'0 0.0
2014-Sep-22 00:33N 51°56' E 004°10'0 0.0
2014-Sep-21 23:33N 51°56' E 004°10'0 0.0
2014-Sep-21 22:33N 51°56' E 004°10'0 0.0
2014-Sep-21 21:30N 51°56' E 004°10'0 0.0
2014-Sep-21 20:33N 51°56' E 004°10'0 0.0
2014-Sep-21 19:33N 51°56' E 004°10'0 0.0
2014-Sep-21 18:33N 51°56' E 004°10'0 0.0
2014-Sep-21 17:33N 51°56' E 004°10'1 1.3
2014-Sep-21 16:33N 51°57' E 004°08'6 5.7
2014-Sep-21 15:33N 52°00' E 004°00'4 4.0
2014-Sep-21 14:33N 52°00' E 003°54'8 8.1
2014-Sep-21 13:33N 51°58' E 003°41'1411.7
2014-Sep-21 12:19N 51°55' E 003°18'  
2014-Sep-14 13:26N 58°57' W 005°44'18611.4
2014-Sep-13 21:11N 55°57' W 007°11'913.6
2014-Sep-13 20:33N 55°51' W 007°02'1414.4
2014-Sep-13 19:33N 55°39' W 006°47'1515.2
2014-Sep-13 18:33N 55°30' W 006°25'1515.5
2014-Sep-13 17:33N 55°23' W 006°01'  
Track history (hours):
 
Tides and Currents Weather Stations Pressure Air Temp Water Temp Dewpoint Dewpoint Depression Visibility Wind Speed Wind Dir Waves Ship Positions

Peary Spirit

Last reported at 2014-Sep-23 17:33 UTC. Time now 2014-Sep-23 18:30 UTC.
Position N 51°56' E 004°10'.

Length 249 m; draft 9.7 m.

Type: Tanker. MMSI: 311027600.

Date/timePositionNaut miles runAvg speedWind from/ knotsBaromVisibWave heightAir tempDewpointWater temp
2014-Sep-23 17:33N 51°56' E 004°10'0 0.0
2014-Sep-23 16:33N 51°56' E 004°10'0 0.0
2014-Sep-23 15:30N 51°56' E 004°10'0 0.0
2014-Sep-23 14:30N 51°56' E 004°10'0 0.0
2014-Sep-23 13:33N 51°56' E 004°10'0 0.0
2014-Sep-23 12:33N 51°56' E 004°10'0 0.0
2014-Sep-23 11:33N 51°56' E 004°10'0 0.0
2014-Sep-23 10:33N 51°56' E 004°10'0 0.0
2014-Sep-23 09:33N 51°56' E 004°10'0 0.0
2014-Sep-23 08:33N 51°56' E 004°10'0 0.0
2014-Sep-23 07:33N 51°56' E 004°10'0 0.0
2014-Sep-23 06:30N 51°56' E 004°10'0 0.0
2014-Sep-23 05:33N 51°56' E 004°10'0 0.0
2014-Sep-23 04:33N 51°56' E 004°10'0 0.0
2014-Sep-23 03:33N 51°56' E 004°10'0 0.0
2014-Sep-23 02:33N 51°56' E 004°10'0 0.0
2014-Sep-23 01:33N 51°56' E 004°10'0 0.0
2014-Sep-23 00:30N 51°56' E 004°10'0 0.0
2014-Sep-22 23:33N 51°56' E 004°10'0 0.0
2014-Sep-22 22:33N 51°56' E 004°10'0 0.0
2014-Sep-22 21:30N 51°56' E 004°10'0 0.0
2014-Sep-22 20:30N 51°56' E 004°10'0 0.0
2014-Sep-22 19:30N 51°56' E 004°10'0 0.0
2014-Sep-22 18:33N 51°56' E 004°10'0 0.0
2014-Sep-22 17:33N 51°56' E 004°10'0 0.0
2014-Sep-22 16:18N 51°56' E 004°10'0 0.0
2014-Sep-22 15:27N 51°56' E 004°10'0 0.0
2014-Sep-22 14:27N 51°56' E 004°10'0 0.0
2014-Sep-22 13:33N 51°56' E 004°10'0 0.0
2014-Sep-22 12:33N 51°56' E 004°10'0 0.0
2014-Sep-22 11:33N 51°56' E 004°10'0 0.0
2014-Sep-22 10:33N 51°56' E 004°10'0 0.0
2014-Sep-22 09:33N 51°56' E 004°10'0 0.0
2014-Sep-22 08:30N 51°56' E 004°10'0 0.0
2014-Sep-22 07:33N 51°56' E 004°10'0 0.0
2014-Sep-22 06:24N 51°56' E 004°10'0 0.0
2014-Sep-22 05:30N 51°56' E 004°10'0 0.0
2014-Sep-22 04:33N 51°56' E 004°10'0 0.0
2014-Sep-22 03:33N 51°56' E 004°10'0 0.0
2014-Sep-22 02:33N 51°56' E 004°10'0 0.0
2014-Sep-22 01:33N 51°56' E 004°10'0 0.0
2014-Sep-22 00:33N 51°56' E 004°10'0 0.0
2014-Sep-21 23:33N 51°56' E 004°10'0 0.0
2014-Sep-21 22:33N 51°56' E 004°10'0 0.0
2014-Sep-21 21:30N 51°56' E 004°10'0 0.0
2014-Sep-21 20:33N 51°56' E 004°10'0 0.0
2014-Sep-21 19:33N 51°56' E 004°10'0 0.0
2014-Sep-21 18:33N 51°56' E 004°10'0 0.0
2014-Sep-21 17:33N 51°56' E 004°10'1 1.3
2014-Sep-21 16:33N 51°57' E 004°08'6 5.7
2014-Sep-21 15:33N 52°00' E 004°00'4 4.0
2014-Sep-21 14:33N 52°00' E 003°54'8 8.1
2014-Sep-21 13:33N 51°58' E 003°41'1411.7
2014-Sep-21 12:19N 51°55' E 003°18'  
2014-Sep-14 13:26N 58°57' W 005°44'18611.4
2014-Sep-13 21:11N 55°57' W 007°11'913.6
2014-Sep-13 20:33N 55°51' W 007°02'1414.4
2014-Sep-13 19:33N 55°39' W 006°47'1515.2
2014-Sep-13 18:33N 55°30' W 006°25'1515.5
2014-Sep-13 17:33N 55°23' W 006°01'  

Dump ship's entire track history